Nearby METAR Reports

 

KHQM - Hoquiam,WA, USA
Updated: 11/24/2020 11:53pm
Overcast
Overcast
 Wind from S
Wind: S 7 mph , 11 km/h
Temperature: 45°F , 7°C
Wind Chill: 41°F , 5°C
Dew Point: 41°F , 5°C
Humidity: 87%
Barometer: 29.96 inHg , 1014.6 hPa
Clouds: Overcast
Visibility: 10 miles , 16 km
Cloud details: Partly cloudy 3900 ft
Overcast 5000 ft
2020/11/25 07:53 KHQM 250753Z AUTO 19006KT 10SM SCT039 OVC050 07/05 A2996 RMK AO2 RAB21E47 SLP150 P0005 T00670050 401000044